createdAt,value
2019-01-03T05:30:06.387Z,978.37
2019-01-03T05:31:06.279Z,978.34
2019-01-03T05:32:59.687Z,978.36
2019-01-03T05:33:59.411Z,978.33
2019-01-03T05:35:52.485Z,978.38
2019-01-03T05:36:52.467Z,978.39
2019-01-03T05:38:45.866Z,978.40
2019-01-03T05:39:45.608Z,978.39
2019-01-03T05:41:38.710Z,978.42
2019-01-03T05:42:38.631Z,978.41
2019-01-03T05:44:31.585Z,978.42
2019-01-03T05:45:31.268Z,978.46
2019-01-03T05:47:24.992Z,978.41
2019-01-03T05:48:24.885Z,978.44
2019-01-03T05:50:18.509Z,978.39
2019-01-03T05:51:18.034Z,978.45
2019-01-03T05:53:21.891Z,978.45
2019-01-03T05:54:12.956Z,978.44
2019-01-03T05:55:11.370Z,978.48
2019-01-03T05:56:18.803Z,978.47
2019-01-03T05:58:06.161Z,978.55
2019-01-03T05:59:12.585Z,978.58
2019-01-03T06:00:58.879Z,978.54
2019-01-03T06:01:58.529Z,978.53
2019-01-03T06:03:06.021Z,978.52
2019-01-03T06:04:53.448Z,978.52
2019-01-03T06:05:52.560Z,978.55
2019-01-03T06:07:46.255Z,978.47
2019-01-03T06:08:46.797Z,978.50
2019-01-03T06:10:39.537Z,978.44
2019-01-03T06:11:47.074Z,978.47
2019-01-03T06:13:33.003Z,978.51
2019-01-03T06:14:32.086Z,978.49
2019-01-03T06:16:33.712Z,978.53
2019-01-03T06:17:25.562Z,978.53
2019-01-03T06:19:19.155Z,978.52
2019-01-03T06:20:26.319Z,978.48
2019-01-03T06:22:13.039Z,978.44
2019-01-03T06:23:12.668Z,978.42
2019-01-03T06:25:06.393Z,978.39
2019-01-03T06:26:06.046Z,978.43
2019-01-03T06:28:08.042Z,978.39
2019-01-03T06:28:59.364Z,978.41
2019-01-03T06:30:53.136Z,978.50
2019-01-03T06:31:52.750Z,978.55
2019-01-03T06:33:45.843Z,978.48
2019-01-03T06:34:45.608Z,978.48
2019-01-03T06:36:39.287Z,978.48
2019-01-03T06:37:38.928Z,978.49
2019-01-03T06:39:32.062Z,978.49
2019-01-03T06:40:39.393Z,978.45
2019-01-03T06:42:26.000Z,978.53
2019-01-03T06:43:25.109Z,978.45
2019-01-03T06:45:18.286Z,978.46
2019-01-03T06:46:17.957Z,978.41
2019-01-03T06:47:17.958Z,978.42
2019-01-03T06:48:25.916Z,978.44
2019-01-03T06:50:11.615Z,978.43
2019-01-03T06:51:11.266Z,978.50
2019-01-03T06:53:04.920Z,978.52
2019-01-03T06:54:04.625Z,978.58
2019-01-03T06:55:57.765Z,978.50
2019-01-03T06:56:57.760Z,978.50
2019-01-03T06:58:58.258Z,978.58
2019-01-03T06:59:51.076Z,978.58
2019-01-03T07:01:44.883Z,978.55
2019-01-03T07:02:43.641Z,978.62
2019-01-03T07:04:44.943Z,978.65
2019-01-03T07:05:36.964Z,978.65
2019-01-03T07:07:30.187Z,978.62
2019-01-03T07:08:31.887Z,978.63
2019-01-03T07:10:23.115Z,978.63
2019-01-03T07:11:22.771Z,978.65
2019-01-03T07:13:16.492Z,978.64
2019-01-03T07:14:16.181Z,978.64
2019-01-03T07:16:11.421Z,978.66
2019-01-03T07:17:09.475Z,978.69
2019-01-03T07:18:09.417Z,978.67
2019-01-03T07:19:09.400Z,978.69
2019-01-03T07:20:10.014Z,978.67
2019-01-03T07:21:09.344Z,978.67
2019-01-03T07:22:09.335Z,978.68
2019-01-03T07:23:09.332Z,978.71
2019-01-03T07:24:09.309Z,978.72
2019-01-03T07:25:16.858Z,978.75
2019-01-03T07:27:03.132Z,978.74
2019-01-03T07:28:02.823Z,978.76
2019-01-03T07:29:55.974Z,978.81
2019-01-03T07:30:55.517Z,978.87
2019-01-03T07:32:50.166Z,978.86
2019-01-03T07:33:50.670Z,978.88
2019-01-03T07:35:43.669Z,978.91
2019-01-03T07:36:43.537Z,978.94
2019-01-03T07:38:36.387Z,978.91
2019-01-03T07:39:36.683Z,978.92
2019-01-03T07:41:30.096Z,978.91
2019-01-03T07:42:39.031Z,978.86
2019-01-03T07:44:26.919Z,978.92
2019-01-03T07:45:23.375Z,978.89
2019-01-03T07:47:19.217Z,978.90
2019-01-03T07:48:20.365Z,978.92
2019-01-03T07:50:11.473Z,978.94
2019-01-03T07:51:10.103Z,978.95
2019-01-03T07:53:04.243Z,978.92
2019-01-03T07:54:12.866Z,978.96
2019-01-03T07:55:57.398Z,979.00
2019-01-03T07:56:57.506Z,978.92
2019-01-03T07:58:52.244Z,978.90
2019-01-03T07:59:50.556Z,979.00
2019-01-03T08:01:43.283Z,978.98
2019-01-03T08:02:43.400Z,979.01
2019-01-03T08:04:35.831Z,979.09
2019-01-03T08:05:38.297Z,979.08
2019-01-03T08:06:37.228Z,979.12
2019-01-03T08:07:43.900Z,979.09
2019-01-03T08:09:30.291Z,979.13
2019-01-03T08:10:28.323Z,979.15
2019-01-03T08:11:28.995Z,979.15
2019-01-03T08:12:29.193Z,979.13
2019-01-03T08:13:28.610Z,979.13
2019-01-03T08:14:28.604Z,979.17
2019-01-03T08:15:29.108Z,979.16
2019-01-03T08:16:28.594Z,979.17
2019-01-03T08:17:28.840Z,979.13
2019-01-03T08:18:28.451Z,979.14
2019-01-03T08:19:28.192Z,979.11
2019-01-03T08:20:28.098Z,979.08
2019-01-03T08:21:28.174Z,979.06
2019-01-03T08:22:29.196Z,979.03
2019-01-03T08:23:29.512Z,979.02
2019-01-03T08:24:30.188Z,979.05
2019-01-03T08:25:29.535Z,979.07
2019-01-03T08:26:33.459Z,979.05
2019-01-03T08:27:30.076Z,979.05
2019-01-03T08:28:29.823Z,979.05
2019-01-03T08:29:28.647Z,979.05
2019-01-03T08:30:28.094Z,979.04
2019-01-03T08:31:27.939Z,979.04
2019-01-03T08:32:27.968Z,979.05
2019-01-03T08:33:27.963Z,979.00
2019-01-03T08:34:27.912Z,979.01
2019-01-03T08:35:27.919Z,978.99
2019-01-03T08:36:27.883Z,978.97
2019-01-03T08:37:27.871Z,978.98
2019-01-03T08:38:27.884Z,978.99
2019-01-03T08:39:29.767Z,978.92
2019-01-03T08:40:27.861Z,978.97
2019-01-03T08:41:27.859Z,978.99
2019-01-03T08:42:27.815Z,978.96
2019-01-03T08:43:27.828Z,978.99
2019-01-03T08:44:27.837Z,979.01
2019-01-03T08:45:27.801Z,979.03
2019-01-03T08:46:27.803Z,979.01
2019-01-03T08:47:27.851Z,978.98
2019-01-03T08:48:27.793Z,978.98
2019-01-03T08:49:35.559Z,979.03
2019-01-03T08:51:21.563Z,978.99
2019-01-03T08:52:23.280Z,979.07
2019-01-03T08:54:16.181Z,979.06
2019-01-03T08:55:14.865Z,979.06
2019-01-03T08:57:10.240Z,979.23
2019-01-03T08:58:11.150Z,979.39
2019-01-03T08:59:08.798Z,979.41
2019-01-03T09:00:08.672Z,979.48
2019-01-03T09:01:08.838Z,979.65
2019-01-03T09:02:17.153Z,979.82
2019-01-03T09:04:03.344Z,979.93
2019-01-03T09:05:03.855Z,980.02
2019-01-03T09:06:57.236Z,979.85
2019-01-03T09:07:56.998Z,979.80
2019-01-03T09:09:49.370Z,979.99
2019-01-03T09:10:48.779Z,979.86
2019-01-03T09:12:42.818Z,979.67
2019-01-03T09:13:42.765Z,979.82
2019-01-03T09:15:35.312Z,979.82
2019-01-03T09:16:35.221Z,979.61
2019-01-03T09:18:28.865Z,979.89
2019-01-03T09:19:28.312Z,979.91
2019-01-03T09:21:21.783Z,979.79
2019-01-03T09:22:21.675Z,980.07
2019-01-03T09:24:15.205Z,979.84
2019-01-03T09:25:22.491Z,979.82
2019-01-03T09:27:12.398Z,979.81
2019-01-03T09:28:08.435Z,979.92
2019-01-03T09:30:01.883Z,980.24
2019-01-03T09:31:01.681Z,980.26
2019-01-03T09:32:55.227Z,980.15
2019-01-03T09:33:55.506Z,980.11
2019-01-03T09:35:48.615Z,980.13
2019-01-03T09:36:47.957Z,980.25
2019-01-03T09:38:41.190Z,980.30
2019-01-03T09:39:40.867Z,980.33
2019-01-03T09:40:40.810Z,980.32
2019-01-03T09:41:41.621Z,980.33
2019-01-03T09:42:41.200Z,980.33
2019-01-03T09:43:40.827Z,980.36
2019-01-03T09:44:40.809Z,980.35
2019-01-03T09:45:44.186Z,980.33
2019-01-03T09:46:40.836Z,980.32
2019-01-03T09:47:40.825Z,980.34
2019-01-03T09:48:40.822Z,980.27
2019-01-03T09:49:40.827Z,980.24
2019-01-03T09:50:40.923Z,980.24
2019-01-03T09:51:40.884Z,980.25
2019-01-03T09:52:40.858Z,980.22
2019-01-03T09:53:40.917Z,980.22
2019-01-03T09:54:40.850Z,980.25
2019-01-03T09:55:40.857Z,980.23
2019-01-03T09:56:40.972Z,980.14
2019-01-03T09:57:40.880Z,980.16
2019-01-03T09:58:40.940Z,980.15
2019-01-03T09:59:40.898Z,980.12
2019-01-03T10:00:40.942Z,980.11
2019-01-03T10:01:40.923Z,980.07
2019-01-03T10:02:40.900Z,980.13
2019-01-03T10:03:40.944Z,980.10
2019-01-03T10:04:40.917Z,980.08
2019-01-03T10:05:40.951Z,980.06
2019-01-03T10:06:40.955Z,980.08
2019-01-03T10:07:40.965Z,980.12
2019-01-03T10:08:40.946Z,980.08
2019-01-03T10:09:40.972Z,980.05
2019-01-03T10:10:40.993Z,980.07
2019-01-03T10:11:40.980Z,980.09
2019-01-03T10:12:41.071Z,980.11
2019-01-03T10:13:41.107Z,980.12
2019-01-03T10:14:41.129Z,980.14
2019-01-03T10:15:41.023Z,980.08
2019-01-03T10:16:41.105Z,980.07
2019-01-03T10:17:41.020Z,979.98
2019-01-03T10:18:41.060Z,980.00
2019-01-03T10:19:41.043Z,980.01
2019-01-03T10:20:41.064Z,979.96
2019-01-03T10:21:41.114Z,979.97
2019-01-03T10:22:41.054Z,979.96
2019-01-03T10:23:41.068Z,979.97
2019-01-03T10:24:41.174Z,979.89
2019-01-03T10:25:41.075Z,979.86
2019-01-03T10:26:41.103Z,979.84
2019-01-03T10:27:41.127Z,979.85
2019-01-03T10:28:41.132Z,979.78
2019-01-03T10:29:41.205Z,979.76
2019-01-03T10:30:41.183Z,979.77
2019-01-03T10:31:41.148Z,979.71
2019-01-03T10:32:41.143Z,979.74
2019-01-03T10:33:41.180Z,979.70
2019-01-03T10:34:41.185Z,979.68
2019-01-03T10:35:41.189Z,979.69
2019-01-03T10:36:41.172Z,979.69
2019-01-03T10:37:41.285Z,979.67
2019-01-03T10:38:41.222Z,979.66
2019-01-03T10:39:41.237Z,979.72
2019-01-03T10:40:41.213Z,979.66
2019-01-03T10:41:41.230Z,979.64
2019-01-03T10:42:41.260Z,979.66
2019-01-03T10:43:41.235Z,979.69
2019-01-03T10:44:41.255Z,979.68
2019-01-03T10:45:41.333Z,979.66
2019-01-03T10:46:41.283Z,979.64
2019-01-03T10:47:41.275Z,979.64
2019-01-03T10:48:41.308Z,979.65
2019-01-03T10:49:41.341Z,979.66
2019-01-03T10:50:41.563Z,979.67
2019-01-03T10:51:41.314Z,979.68
2019-01-03T10:52:41.322Z,979.67
2019-01-03T10:53:41.353Z,979.56
2019-01-03T10:54:41.387Z,979.42
2019-01-03T10:55:41.426Z,979.14
2019-01-03T10:56:41.373Z,979.16
2019-01-03T10:57:41.375Z,979.09
2019-01-03T10:58:41.373Z,979.07
2019-01-03T10:59:41.384Z,979.02
2019-01-03T11:00:41.389Z,978.94
2019-01-03T11:01:41.397Z,978.97
2019-01-03T11:02:41.402Z,978.91
2019-01-03T11:03:42.325Z,978.88
2019-01-03T11:04:41.476Z,978.86
2019-01-03T11:05:41.422Z,978.84
2019-01-03T11:06:41.431Z,978.83
2019-01-03T11:07:41.489Z,978.86
2019-01-03T11:08:48.877Z,978.81
2019-01-03T11:10:35.184Z,978.77
2019-01-03T11:11:34.343Z,978.69
2019-01-03T11:13:28.673Z,978.61
2019-01-03T11:14:27.898Z,978.64
2019-01-03T11:16:20.477Z,978.65
2019-01-03T11:17:20.196Z,978.68
2019-01-03T11:18:20.178Z,978.68
2019-01-03T11:19:20.213Z,978.65
2019-01-03T11:20:20.175Z,978.65
2019-01-03T11:21:20.181Z,978.70
2019-01-03T11:22:20.185Z,978.67
2019-01-03T11:23:20.216Z,978.65
2019-01-03T11:24:20.178Z,978.65
2019-01-03T11:25:20.195Z,978.65
2019-01-03T11:26:20.210Z,978.67
2019-01-03T11:27:20.197Z,978.65
2019-01-03T11:28:20.445Z,978.62
2019-01-03T11:29:20.483Z,978.66
2019-01-03T11:30:20.182Z,978.66
2019-01-03T11:31:20.177Z,978.60
2019-01-03T11:32:20.182Z,978.61
2019-01-03T11:33:20.197Z,978.59
2019-01-03T11:34:20.178Z,978.58
2019-01-03T11:35:20.182Z,978.57
2019-01-03T11:36:20.185Z,978.55
2019-01-03T11:37:20.168Z,978.52
2019-01-03T11:38:27.892Z,978.45
2019-01-03T11:40:14.083Z,978.45
2019-01-03T11:41:13.857Z,978.40
2019-01-03T11:43:07.327Z,978.42
2019-01-03T11:44:07.208Z,978.34
2019-01-03T11:46:00.136Z,978.42
2019-01-03T11:47:00.108Z,978.45
2019-01-03T11:48:53.512Z,978.42
2019-01-03T11:49:53.235Z,978.42
2019-01-03T11:51:46.534Z,978.45
2019-01-03T11:52:46.624Z,978.46
2019-01-03T11:54:46.925Z,978.53
2019-01-03T11:55:40.224Z,978.47
2019-01-03T11:57:32.721Z,978.57
2019-01-03T11:58:32.395Z,978.57
2019-01-03T12:00:26.420Z,978.53
2019-01-03T12:01:33.221Z,978.52
2019-01-03T12:03:19.532Z,978.52
2019-01-03T12:04:19.488Z,978.54
2019-01-03T12:06:12.391Z,978.51
2019-01-03T12:07:12.322Z,978.48
2019-01-03T12:09:05.768Z,978.48
2019-01-03T12:10:05.741Z,978.49
2019-01-03T12:11:58.625Z,978.54
2019-01-03T12:12:58.378Z,978.51
2019-01-03T12:14:51.497Z,978.55
2019-01-03T12:15:51.450Z,978.56
2019-01-03T12:17:44.380Z,978.57
2019-01-03T12:18:44.416Z,978.60
2019-01-03T12:20:37.839Z,978.51
2019-01-03T12:21:36.956Z,978.53
2019-01-03T12:23:30.092Z,978.55
2019-01-03T12:24:30.769Z,978.58
2019-01-03T12:26:24.980Z,978.61
2019-01-03T12:27:23.107Z,978.62
2019-01-03T12:28:22.984Z,978.66
2019-01-03T12:29:22.958Z,978.65
2019-01-03T12:30:22.711Z,978.66
2019-01-03T12:31:22.956Z,978.61
2019-01-03T12:32:22.932Z,978.61
2019-01-03T12:33:22.892Z,978.63
2019-01-03T12:34:22.893Z,978.61
2019-01-03T12:35:22.926Z,978.65
2019-01-03T12:36:22.664Z,978.64
2019-01-03T12:37:22.678Z,978.64
2019-01-03T12:38:22.850Z,978.63
2019-01-03T12:39:22.880Z,978.59
2019-01-03T12:40:22.878Z,978.59
2019-01-03T12:41:22.852Z,978.59
2019-01-03T12:42:22.850Z,978.59
2019-01-03T12:43:22.840Z,978.62
2019-01-03T12:44:22.884Z,978.64
2019-01-03T12:45:22.874Z,978.60
2019-01-03T12:46:22.623Z,978.60
2019-01-03T12:47:22.904Z,978.62
2019-01-03T12:48:23.575Z,978.60
2019-01-03T12:49:22.875Z,978.64
2019-01-03T12:50:24.469Z,978.62
2019-01-03T12:51:22.552Z,978.55
2019-01-03T12:52:22.552Z,978.57
2019-01-03T12:53:22.555Z,978.52
2019-01-03T12:54:22.534Z,978.49
2019-01-03T12:55:22.535Z,978.51
2019-01-03T12:56:22.575Z,978.45
2019-01-03T12:57:22.517Z,978.48
2019-01-03T12:58:22.544Z,978.49
2019-01-03T12:59:29.920Z,978.45
2019-01-03T13:01:16.232Z,978.51
2019-01-03T13:02:16.738Z,978.51
2019-01-03T13:04:16.242Z,978.53
2019-01-03T13:05:09.020Z,978.50
2019-01-03T13:07:01.941Z,978.51
2019-01-03T13:08:01.884Z,978.53
2019-01-03T13:09:55.335Z,978.51
2019-01-03T13:10:55.072Z,978.53
2019-01-03T13:12:49.038Z,978.64
2019-01-03T13:13:57.222Z,978.69
2019-01-03T13:15:41.611Z,978.76
2019-01-03T13:16:41.311Z,978.74
2019-01-03T13:18:38.893Z,978.74
2019-01-03T13:19:47.259Z,978.73
2019-01-03T13:21:31.741Z,978.69
2019-01-03T13:22:38.974Z,978.68
2019-01-03T13:24:25.199Z,978.70
2019-01-03T13:25:24.871Z,978.73
2019-01-03T13:27:19.064Z,978.71
2019-01-03T13:28:18.753Z,978.81
2019-01-03T13:30:11.960Z,978.80
2019-01-03T13:31:11.840Z,978.80
2019-01-03T13:33:05.365Z,978.80
2019-01-03T13:34:05.012Z,978.82
2019-01-03T13:35:59.684Z,978.86
2019-01-03T13:37:06.287Z,978.84
2019-01-03T13:38:58.777Z,978.83
2019-01-03T13:39:51.416Z,978.78
2019-01-03T13:41:45.050Z,978.82
2019-01-03T13:42:52.092Z,978.84
2019-01-03T13:44:39.667Z,978.80
2019-01-03T13:45:38.895Z,978.81
2019-01-03T13:47:32.091Z,978.79
2019-01-03T13:48:32.130Z,978.80
2019-01-03T13:50:25.645Z,978.77
2019-01-03T13:51:32.180Z,978.76
2019-01-03T13:53:17.759Z,978.75
2019-01-03T13:54:17.442Z,978.71
2019-01-03T13:56:11.247Z,978.71
2019-01-03T13:57:11.510Z,978.70
2019-01-03T13:59:04.648Z,978.71
2019-01-03T14:00:04.231Z,978.73
2019-01-03T14:01:58.339Z,978.82
2019-01-03T14:02:58.114Z,978.74
2019-01-03T14:04:59.056Z,978.81
2019-01-03T14:05:51.448Z,978.78
2019-01-03T14:07:45.774Z,978.73
2019-01-03T14:08:53.101Z,978.79
2019-01-03T14:10:39.103Z,978.84
2019-01-03T14:11:38.861Z,978.79
2019-01-03T14:13:31.881Z,978.90
2019-01-03T14:14:31.844Z,978.89
2019-01-03T14:16:24.778Z,978.95
2019-01-03T14:17:24.504Z,978.96
2019-01-03T14:19:17.558Z,978.88
2019-01-03T14:20:17.321Z,978.90
2019-01-03T14:22:11.110Z,978.91
2019-01-03T14:23:10.696Z,978.87
2019-01-03T14:25:04.194Z,978.95
2019-01-03T14:26:11.600Z,978.93
2019-01-03T14:27:57.716Z,978.85
2019-01-03T14:28:57.038Z,978.81
2019-01-03T14:30:50.870Z,978.84
2019-01-03T14:31:57.904Z,978.82
2019-01-03T14:33:44.139Z,978.84
2019-01-03T14:34:44.135Z,978.85
2019-01-03T14:36:37.645Z,978.82
2019-01-03T14:37:37.308Z,978.83
2019-01-03T14:39:31.190Z,978.77
2019-01-03T14:40:30.750Z,978.82
2019-01-03T14:42:25.070Z,978.82
2019-01-03T14:43:23.787Z,978.90
2019-01-03T14:47:04.956Z,978.89
2019-01-03T14:47:57.363Z,978.83
2019-01-03T14:49:50.768Z,978.85
2019-01-03T14:50:50.524Z,978.85
2019-01-03T14:52:44.909Z,978.79
2019-01-03T14:53:44.731Z,978.83
2019-01-03T14:54:44.617Z,978.81
2019-01-03T14:55:44.643Z,978.75
2019-01-03T14:56:53.433Z,978.76
2019-01-03T14:58:39.286Z,978.75
2019-01-03T14:59:40.080Z,978.77
2019-01-03T15:01:34.230Z,978.79
2019-01-03T15:02:33.114Z,978.82
2019-01-03T15:04:26.583Z,978.78
2019-01-03T15:05:25.762Z,978.76
2019-01-03T15:07:20.463Z,978.76
2019-01-03T15:08:19.256Z,978.72
2019-01-03T15:10:12.384Z,978.69
2019-01-03T15:11:12.230Z,978.74
2019-01-03T15:13:05.925Z,978.73
2019-01-03T15:14:05.419Z,978.72
2019-01-03T15:15:59.271Z,978.71
2019-01-03T15:16:59.116Z,978.69
2019-01-03T15:18:52.996Z,978.63
2019-01-03T15:19:53.010Z,978.63
2019-01-03T15:21:47.435Z,978.62
2019-01-03T15:22:46.072Z,978.65
2019-01-03T15:24:47.584Z,978.62
2019-01-03T15:25:39.463Z,978.63
2019-01-03T15:27:33.261Z,978.68
2019-01-03T15:28:32.917Z,978.69
2019-01-03T15:30:26.062Z,978.67
2019-01-03T15:31:33.700Z,978.64
2019-01-03T15:33:19.532Z,978.66
2019-01-03T15:34:27.522Z,978.57
2019-01-03T15:36:12.330Z,978.57
2019-01-03T15:37:20.230Z,978.56
2019-01-03T15:39:05.650Z,978.54
2019-01-03T15:40:05.424Z,978.58
2019-01-03T15:41:59.224Z,978.57
2019-01-03T15:42:58.827Z,978.62
2019-01-03T15:44:52.496Z,978.61
2019-01-03T15:45:52.604Z,978.66
2019-01-03T15:47:53.805Z,978.63
2019-01-03T15:48:45.728Z,978.65
2019-01-03T15:50:39.969Z,978.70
2019-01-03T15:51:38.492Z,978.69
2019-01-03T15:53:31.634Z,978.71
2019-01-03T15:54:31.341Z,978.66
2019-01-03T15:56:24.584Z,978.69
2019-01-03T15:57:24.213Z,978.71
2019-01-03T15:59:19.169Z,978.73
2019-01-03T16:00:17.319Z,978.73
2019-01-03T16:01:17.169Z,978.73
2019-01-03T16:02:17.026Z,978.74
2019-01-03T16:03:17.006Z,978.75
2019-01-03T16:04:17.034Z,978.74
2019-01-03T16:05:17.000Z,978.78
2019-01-03T16:06:16.984Z,978.78
2019-01-03T16:07:18.604Z,978.82
2019-01-03T16:08:16.960Z,978.83
2019-01-03T16:09:24.390Z,978.80
2019-01-03T16:11:10.772Z,978.86
2019-01-03T16:12:09.825Z,978.82
2019-01-03T16:14:03.635Z,978.85
2019-01-03T16:15:03.275Z,978.84
2019-01-03T16:16:57.067Z,978.86
2019-01-03T16:17:56.690Z,978.87
2019-01-03T16:19:50.448Z,978.87
2019-01-03T16:20:50.118Z,978.88
2019-01-03T16:22:43.605Z,978.90
2019-01-03T16:23:43.231Z,978.92
2019-01-03T16:25:37.083Z,978.90
2019-01-03T16:26:37.105Z,978.95
2019-01-03T16:28:31.214Z,978.92
2019-01-03T16:29:31.716Z,978.90
2019-01-03T16:31:23.752Z,978.85
2019-01-03T16:32:31.401Z,978.85
2019-01-03T16:34:16.409Z,978.89
2019-01-03T16:35:15.893Z,978.82
2019-01-03T16:37:09.628Z,978.80
2019-01-03T16:38:10.163Z,978.84
2019-01-03T16:40:02.474Z,978.81
2019-01-03T16:41:02.509Z,978.76
2019-01-03T16:42:56.841Z,978.77
2019-01-03T16:43:57.246Z,978.78
2019-01-03T17:20:26.314Z,978.86
2019-01-03T17:21:26.301Z,978.86
2019-01-03T17:23:49.837Z,978.86
2019-01-03T17:24:49.906Z,978.80
2019-01-03T17:26:44.215Z,978.89
2019-01-03T17:27:42.576Z,978.87
2019-01-03T17:29:36.931Z,978.91
2019-01-03T17:30:38.160Z,978.90
2019-01-03T17:32:29.707Z,978.93
2019-01-03T17:33:29.414Z,978.93
2019-01-03T17:35:22.664Z,978.94
2019-01-03T17:36:23.005Z,978.98
2019-01-03T17:38:16.672Z,979.00
2019-01-03T17:39:16.255Z,978.95
2019-01-03T17:41:10.239Z,979.01
2019-01-03T17:42:09.435Z,979.05
2019-01-03T17:44:04.115Z,979.01
2019-01-03T17:45:03.156Z,979.01
2019-01-03T17:46:56.616Z,979.03
2019-01-03T17:47:56.236Z,978.98
2019-01-03T17:49:49.971Z,979.00
2019-01-03T17:50:49.964Z,979.02
2019-01-03T17:52:42.759Z,979.06
2019-01-03T17:53:42.634Z,978.99
2019-01-03T17:55:36.328Z,979.02
2019-01-03T17:56:36.195Z,979.05
2019-01-03T17:57:36.118Z,978.99
2019-01-03T17:58:36.063Z,978.96
2019-01-03T17:59:36.119Z,979.01
2019-01-03T18:00:36.141Z,978.97
2019-01-03T18:01:44.487Z,978.97
2019-01-03T18:03:29.591Z,979.00
2019-01-03T18:04:29.199Z,978.95
2019-01-03T18:06:23.345Z,978.99
2019-01-03T18:07:23.325Z,978.99
2019-01-03T18:09:24.053Z,979.06
2019-01-03T18:10:16.747Z,979.03
2019-01-03T18:12:09.913Z,978.99
2019-01-03T18:13:09.607Z,979.06
2019-01-03T18:15:03.045Z,979.06
2019-01-03T18:16:02.974Z,979.04
2019-01-03T18:17:57.726Z,979.01
2019-01-03T18:18:56.670Z,978.96
2019-01-03T18:20:50.771Z,978.94
2019-01-03T18:21:57.861Z,978.98
2019-01-03T18:23:44.287Z,978.93
2019-01-03T18:24:44.729Z,978.98
2019-01-03T18:26:37.979Z,978.96
2019-01-03T18:27:37.663Z,979.04
2019-01-03T18:29:30.527Z,978.98
2019-01-03T18:30:30.456Z,978.93
2019-01-03T18:32:24.445Z,978.84
2019-01-03T18:33:24.475Z,978.83
2019-01-03T18:34:23.516Z,978.78
2019-01-03T18:35:24.001Z,978.81
2019-01-03T18:36:23.988Z,978.83
2019-01-03T18:37:23.482Z,978.85
2019-01-03T18:38:23.469Z,978.83
2019-01-03T18:39:23.052Z,978.82
2019-01-03T18:40:23.912Z,978.76
2019-01-03T18:41:26.936Z,978.83
2019-01-03T18:42:24.568Z,978.76
2019-01-03T18:46:04.134Z,978.71
2019-01-03T18:47:04.909Z,978.68
2019-01-03T18:48:03.474Z,978.66
2019-01-03T18:49:03.864Z,978.63
2019-01-03T18:50:03.831Z,978.68
2019-01-03T18:51:04.808Z,978.73
2019-01-03T18:52:04.210Z,978.65
2019-01-03T18:53:03.762Z,978.60
2019-01-03T18:54:03.054Z,978.60
2019-01-03T18:55:03.969Z,978.65
2019-01-03T18:56:03.176Z,978.68
2019-01-03T18:57:03.706Z,978.70
2019-01-03T18:58:02.736Z,978.67
2019-01-03T18:59:02.722Z,978.72
2019-01-03T19:00:02.710Z,978.64
2019-01-03T19:01:02.699Z,978.66
2019-01-03T19:02:02.688Z,978.72
2019-01-03T19:03:02.682Z,978.72
2019-01-03T19:04:04.446Z,978.75
2019-01-03T19:05:02.662Z,978.75
2019-01-03T19:06:02.703Z,978.72
2019-01-03T19:07:02.642Z,978.75
2019-01-03T19:08:02.692Z,978.75
2019-01-03T19:09:10.785Z,978.78
2019-01-03T19:10:56.626Z,978.72
2019-01-03T19:11:57.868Z,978.75
2019-01-03T19:13:55.616Z,978.83
2019-01-03T19:14:52.332Z,978.83
2019-01-03T19:16:43.263Z,978.87
2019-01-03T19:17:44.453Z,978.89
2019-01-03T19:19:37.166Z,978.92
2019-01-03T19:20:36.425Z,978.91
2019-01-03T19:22:30.475Z,978.85
2019-01-03T19:23:30.413Z,978.85
2019-01-03T19:25:24.054Z,978.86
2019-01-03T19:26:22.898Z,978.84
2019-01-03T19:28:16.544Z,978.85
2019-01-03T19:29:15.365Z,978.84
2019-01-03T19:31:08.639Z,978.85
2019-01-03T19:32:11.455Z,978.85
2019-01-03T19:34:02.323Z,978.82
2019-01-03T19:35:02.099Z,978.87
2019-01-03T19:36:55.530Z,978.79
2019-01-03T19:37:56.165Z,978.81
2019-01-03T19:39:48.916Z,978.83
2019-01-03T19:40:48.936Z,978.86
2019-01-03T19:42:43.161Z,978.88
2019-01-03T19:43:42.325Z,978.88
2019-01-03T19:45:35.385Z,978.93
2019-01-03T19:46:34.815Z,978.95
2019-01-03T19:48:27.998Z,978.95
2019-01-03T19:49:28.564Z,978.94
2019-01-03T19:51:21.970Z,979.04
2019-01-03T19:52:22.024Z,979.00
2019-01-03T19:54:14.424Z,979.04
2019-01-03T19:55:14.356Z,979.10
2019-01-03T19:57:07.742Z,979.05
2019-01-03T19:58:07.777Z,979.01
2019-01-03T20:00:02.209Z,979.03
2019-01-03T20:01:00.530Z,978.99
2019-01-03T20:02:54.970Z,979.02
2019-01-03T20:03:54.484Z,979.02
2019-01-03T20:05:47.370Z,979.02
2019-01-03T20:06:47.329Z,979.04
2019-01-03T20:08:40.238Z,978.98
2019-01-03T20:09:40.674Z,978.99
2019-01-03T20:11:34.742Z,979.02
2019-01-03T20:12:33.149Z,979.04
2019-01-03T20:14:26.024Z,979.10
2019-01-03T20:15:27.659Z,979.08
2019-01-03T20:17:19.399Z,979.07
2019-01-03T20:18:19.383Z,979.11
2019-01-03T20:20:14.035Z,979.15
2019-01-03T20:21:12.709Z,979.11
2019-01-03T20:23:06.171Z,979.14
2019-01-03T20:24:07.745Z,979.14
2019-01-03T20:26:00.118Z,979.15
2019-01-03T20:26:59.314Z,979.13
2019-01-03T20:28:53.429Z,979.09
2019-01-03T20:29:52.982Z,979.12
2019-01-03T20:31:46.504Z,979.11
2019-01-03T20:32:46.553Z,979.08
2019-01-03T20:33:47.306Z,979.11
2019-01-03T20:34:46.815Z,979.08
2019-01-03T20:35:46.372Z,979.04
2019-01-03T20:36:47.558Z,979.09
2019-01-03T20:37:46.248Z,979.06
2019-01-03T20:38:46.858Z,979.08
2019-01-03T20:40:40.121Z,979.08
2019-01-03T20:41:38.689Z,979.06
2019-01-03T20:43:32.625Z,979.08
2019-01-03T20:44:31.930Z,979.10
2019-01-03T20:46:24.866Z,979.06
2019-01-03T20:47:24.592Z,979.03
2019-01-03T20:49:18.293Z,979.03
2019-01-03T20:50:17.978Z,979.04
2019-01-03T20:51:18.018Z,979.05
2019-01-03T20:52:17.891Z,979.04
2019-01-03T20:53:17.888Z,979.09
2019-01-03T20:54:17.907Z,979.12
2019-01-03T20:55:17.884Z,979.07
2019-01-03T20:56:17.851Z,979.15
2019-01-03T20:57:18.111Z,979.11
2019-01-03T20:58:18.266Z,979.16
2019-01-03T20:59:18.165Z,979.20
2019-01-03T21:00:17.806Z,979.20
2019-01-03T21:01:17.793Z,979.21
2019-01-03T21:02:17.796Z,979.22
2019-01-03T21:03:17.777Z,979.16
2019-01-03T21:04:17.843Z,979.19
2019-01-03T21:05:17.766Z,979.16
2019-01-03T21:06:17.769Z,979.14
2019-01-03T21:07:17.739Z,979.12
2019-01-03T21:08:17.732Z,979.13
2019-01-03T21:09:17.723Z,979.16
2019-01-03T21:10:17.787Z,979.20
2019-01-03T21:11:17.762Z,979.22
2019-01-03T21:12:17.698Z,979.22
2019-01-03T21:13:17.688Z,979.18
2019-01-03T21:14:17.701Z,979.28
2019-01-03T21:15:17.667Z,979.27
2019-01-03T21:16:17.663Z,979.31
2019-01-03T21:17:17.647Z,979.32
2019-01-03T21:18:17.641Z,979.30
2019-01-03T21:19:17.632Z,979.25
2019-01-03T21:20:17.622Z,979.25
2019-01-03T21:21:17.609Z,979.35
2019-01-03T21:22:17.603Z,979.35
2019-01-03T21:23:17.593Z,979.35
2019-01-03T21:24:17.617Z,979.33
2019-01-03T21:25:17.578Z,979.30
2019-01-03T21:26:17.566Z,979.32
2019-01-03T21:27:17.582Z,979.35
2019-01-03T21:28:17.554Z,979.33
2019-01-03T21:29:17.560Z,979.31
2019-01-03T21:30:17.538Z,979.29
2019-01-03T21:31:17.521Z,979.28
2019-01-03T21:32:17.513Z,979.32
2019-01-03T21:33:24.963Z,979.33
2019-01-03T21:35:11.376Z,979.25
2019-01-03T21:36:10.714Z,979.26
2019-01-03T21:38:03.786Z,979.26
2019-01-03T21:39:03.554Z,979.25
2019-01-03T21:40:57.013Z,979.27
2019-01-03T21:41:56.752Z,979.30
2019-01-03T21:43:50.795Z,979.31
2019-01-03T21:44:50.368Z,979.28
2019-01-03T21:46:43.282Z,979.26
2019-01-03T21:47:42.983Z,979.25
2019-01-03T21:49:36.739Z,979.23
2019-01-03T21:50:36.668Z,979.26
2019-01-03T21:52:29.519Z,979.23
2019-01-03T21:53:29.505Z,979.29
2019-01-03T21:55:23.039Z,979.30
2019-01-03T21:56:22.930Z,979.26